Time;durP1;ratioP1;P1;durP2;ratioP2;P2;SDS_P1;SDS_P2;PMS_P1;PMS_P2;Temp;Humidity;BMP_temperature;BMP_pressure;BME280_temperature;BME280_humidity;BME280_pressure;Samples;Min_cycle;Max_cycle;Signal;HPM_P1;HPM_P2
2022/06/07 00:02:28;;;;;;;2.33;1.73;;;24.50;49.60;;;;;;4943363;28;88149;-68
2022/06/07 00:05:00;;;;;;;3.40;1.87;;;24.50;49.60;;;;;;4942260;28;89804;-68
2022/06/07 00:07:29;;;;;;;2.20;1.70;;;24.50;49.60;;;;;;4942705;28;88995;-69
2022/06/07 00:09:57;;;;;;;2.80;1.90;;;24.50;49.60;;;;;;4942729;28;88477;-69
2022/06/07 00:12:27;;;;;;;2.70;1.47;;;24.50;49.60;;;;;;4932827;28;88222;-68
2022/06/07 00:14:57;;;;;;;2.23;1.20;;;24.50;49.60;;;;;;4942560;28;92540;-69
2022/06/07 00:17:26;;;;;;;6.93;1.63;;;24.50;49.60;;;;;;4942328;28;90289;-68
2022/06/07 00:19:54;;;;;;;1.63;1.53;;;24.50;49.60;;;;;;4942268;28;88808;-69
2022/06/07 00:22:23;;;;;;;2.43;1.47;;;24.50;49.60;;;;;;4942928;28;88612;-69
2022/06/07 00:24:52;;;;;;;1.70;1.43;;;24.50;49.60;;;;;;4935309;28;91878;-68
2022/06/07 00:27:21;;;;;;;2.50;1.57;;;24.50;49.60;;;;;;4942822;28;89020;-68
2022/06/07 00:29:50;;;;;;;3.67;1.47;;;24.50;49.50;;;;;;4942909;28;88136;-68
2022/06/07 00:32:20;;;;;;;2.00;1.60;;;24.50;49.60;;;;;;4942538;28;88683;-68
2022/06/07 00:34:49;;;;;;;2.80;1.33;;;24.50;49.60;;;;;;4943471;28;89460;-68
2022/06/07 00:37:17;;;;;;;2.13;1.43;;;24.50;49.50;;;;;;4943208;28;89940;-68
2022/06/07 00:39:49;;;;;;;2.33;1.13;;;24.50;49.50;;;;;;4942182;28;88448;-68
2022/06/07 00:42:17;;;;;;;1.33;1.23;;;24.40;49.40;;;;;;4929711;28;88622;-68
2022/06/07 00:44:47;;;;;;;4.07;1.70;;;24.40;49.40;;;;;;4942884;28;90236;-69
2022/06/07 00:47:17;;;;;;;1.93;1.43;;;24.40;49.40;;;;;;4942994;28;89010;-68
2022/06/07 00:49:52;;;;;;;1.77;1.23;;;24.40;49.40;;;;;;4942442;28;88398;-69
2022/06/07 00:52:25;;;;;;;1.90;1.10;;;24.40;49.50;;;;;;4943601;28;88611;-68
2022/06/07 00:55:00;;;;;;;1.73;1.40;;;24.40;49.40;;;;;;4942050;28;91932;-68
2022/06/07 00:57:28;;;;;;;1.50;1.20;;;24.40;49.40;;;;;;4941703;28;89002;-74
2022/06/07 01:00:05;;;;;;;1.77;1.60;;;24.40;49.40;;;;;;4941535;28;88520;-74
2022/06/07 01:02:33;;;;;;;1.40;1.30;;;24.40;49.40;;;;;;4942146;28;88655;-73
2022/06/07 01:05:04;;;;;;;2.43;1.50;;;24.40;49.40;;;;;;4942145;28;90585;-73
2022/06/07 01:13:06;;;;;;;0.60;0.60;;;24.40;49.40;;;;;;4942431;28;88560;-74
2022/06/07 01:15:34;;;;;;;2.00;1.10;;;24.40;49.40;;;;;;4942131;28;90848;-73
2022/06/07 01:18:03;;;;;;;1.30;1.20;;;24.40;49.40;;;;;;4941506;28;89354;-74
2022/06/07 01:20:31;;;;;;;1.53;0.90;;;24.40;49.40;;;;;;4942282;28;88159;-74
2022/06/07 01:23:00;;;;;;;2.20;1.07;;;24.40;49.40;;;;;;4942425;28;88353;-74
2022/06/07 01:25:31;;;;;;;1.87;0.90;;;24.40;49.40;;;;;;4941968;28;89318;-74
2022/06/07 01:27:59;;;;;;;1.23;0.90;;;24.40;49.40;;;;;;4941678;28;91810;-75
2022/06/07 01:30:27;;;;;;;2.03;1.03;;;24.40;49.40;;;;;;4940629;28;88581;-73
2022/06/07 01:32:56;;;;;;;1.23;0.80;;;24.40;49.40;;;;;;4941843;28;88582;-74
2022/06/07 01:35:25;;;;;;;0.80;0.80;;;24.40;49.40;;;;;;4940912;28;89563;-73
2022/06/07 01:37:53;;;;;;;1.60;1.07;;;24.40;49.40;;;;;;4941977;28;90779;-74
2022/06/07 01:43:10;;;;;;;1.43;1.00;;;24.40;49.40;;;;;;4934656;28;88337;-74
2022/06/07 01:45:38;;;;;;;1.50;0.80;;;24.40;49.40;;;;;;4941984;28;90103;-74
2022/06/07 01:48:07;;;;;;;1.00;1.00;;;24.40;49.40;;;;;;4941916;28;91591;-74
2022/06/07 01:50:36;;;;;;;1.30;0.90;;;24.40;49.40;;;;;;4942877;28;88439;-74
2022/06/07 01:53:04;;;;;;;0.77;0.73;;;24.40;49.40;;;;;;4942456;28;88275;-74
2022/06/07 01:55:35;;;;;;;1.17;0.90;;;24.40;50.00;;;;;;4941884;28;90224;-73
2022/06/07 01:58:03;;;;;;;0.70;0.70;;;24.30;49.30;;;;;;4941306;28;90223;-74
2022/06/07 02:00:33;;;;;;;0.90;0.77;;;24.30;49.30;;;;;;4941236;28;89030;-68
2022/06/07 02:03:02;;;;;;;6.07;1.10;;;24.30;49.30;;;;;;4941959;28;88711;-68
2022/06/07 02:05:32;;;;;;;0.73;0.73;;;24.30;49.30;;;;;;4942067;28;91691;-68
2022/06/07 02:08:00;;;;;;;1.10;0.70;;;24.30;49.20;;;;;;4941485;28;91379;-68
2022/06/07 02:10:28;;;;;;;1.37;0.90;;;24.30;49.30;;;;;;4942516;28;91881;-68
2022/06/07 02:12:59;;;;;;;1.17;0.87;;;24.30;49.30;;;;;;4946758;28;88318;-67
2022/06/07 02:15:27;;;;;;;0.77;0.70;;;24.30;49.30;;;;;;4940145;28;91951;-68
2022/06/07 02:17:56;;;;;;;0.87;0.80;;;24.30;49.20;;;;;;4941115;28;88470;-68
2022/06/07 02:20:25;;;;;;;1.07;0.90;;;24.30;49.20;;;;;;4921400;28;88905;-69
2022/06/07 02:22:53;;;;;;;1.50;0.73;;;24.30;49.20;;;;;;4935211;28;88594;-68
2022/06/07 02:25:22;;;;;;;0.90;0.80;;;24.30;49.20;;;;;;4941172;28;92806;-68
2022/06/07 02:27:51;;;;;;;1.67;1.33;;;24.30;49.20;;;;;;4941030;28;93579;-68
2022/06/07 02:30:21;;;;;;;1.40;0.90;;;24.30;49.20;;;;;;4941101;28;88429;-68
2022/06/07 02:32:50;;;;;;;2.37;0.80;;;24.30;49.20;;;;;;4940805;28;88616;-68
2022/06/07 02:35:20;;;;;;;1.90;1.20;;;24.30;49.20;;;;;;4941190;28;90731;-68
2022/06/07 02:37:48;;;;;;;1.07;0.90;;;24.30;49.20;;;;;;4941229;28;90480;-69
2022/06/07 02:40:16;;;;;;;0.90;0.90;;;24.30;49.20;;;;;;4940874;28;88405;-67
2022/06/07 02:42:44;;;;;;;1.00;0.90;;;24.30;49.20;;;;;;4951489;28;90365;-68
2022/06/07 02:45:13;;;;;;;2.47;0.80;;;24.30;49.20;;;;;;4956205;28;89486;-68
2022/06/07 02:47:43;;;;;;;0.70;0.70;;;24.30;49.20;;;;;;4953449;28;93142;-68
2022/06/07 02:50:14;;;;;;;0.70;0.70;;;24.30;49.20;;;;;;4938731;28;88549;-68
2022/06/07 02:52:42;;;;;;;0.83;0.83;;;24.30;49.20;;;;;;4925122;28;88657;-69
2022/06/07 02:55:11;;;;;;;0.80;0.80;;;24.30;49.20;;;;;;4953795;28;90014;-67
2022/06/07 02:57:39;;;;;;;0.60;0.60;;;24.30;49.20;;;;;;4954390;28;89409;-68
2022/06/07 03:00:08;;;;;;;1.00;0.83;;;24.30;49.20;;;;;;4955910;28;88328;-68
2022/06/07 03:02:37;;;;;;;1.13;0.80;;;24.30;49.20;;;;;;4956021;28;88525;-68
2022/06/07 03:05:11;;;;;;;1.50;1.20;;;24.30;49.20;;;;;;4955196;28;89464;-67
2022/06/07 03:07:48;;;;;;;1.53;1.23;;;24.20;49.20;;;;;;4955658;28;88881;-68
2022/06/07 03:10:19;;;;;;;2.43;1.70;;;24.30;49.20;;;;;;4956078;28;88432;-68
2022/06/07 03:12:48;;;;;;;2.10;1.87;;;24.20;49.10;;;;;;4957238;28;88663;-68
2022/06/07 03:15:16;;;;;;;2.53;1.90;;;24.20;49.10;;;;;;4953385;28;90676;-68
2022/06/07 03:17:45;;;;;;;2.33;1.73;;;24.20;49.10;;;;;;4938882;28;89212;-68
2022/06/07 03:20:14;;;;;;;4.20;2.20;;;24.20;49.10;;;;;;4939691;28;88363;-68
2022/06/07 03:22:43;;;;;;;3.97;2.67;;;24.20;49.10;;;;;;4944103;28;88706;-68
2022/06/07 03:25:11;;;;;;;4.70;3.30;;;24.20;49.10;;;;;;4938550;28;88555;-68
2022/06/07 03:27:39;;;;;;;4.50;3.00;;;24.20;49.10;;;;;;4939284;28;89774;-68
2022/06/07 03:30:09;;;;;;;4.97;3.30;;;24.20;49.10;;;;;;4939461;28;88887;-68
2022/06/07 03:32:39;;;;;;;5.57;3.10;;;24.20;49.10;;;;;;4923899;28;88765;-68
2022/06/07 03:35:08;;;;;;;6.80;2.87;;;24.20;49.10;;;;;;4943608;28;90767;-68
2022/06/07 03:37:39;;;;;;;5.60;3.60;;;24.20;49.10;;;;;;4943452;28;92042;-68
2022/06/07 03:40:11;;;;;;;4.77;3.33;;;24.20;49.10;;;;;;4943472;28;89778;-67
2022/06/07 03:42:42;;;;;;;5.33;3.73;;;24.20;49.10;;;;;;4943024;28;88698;-68
2022/06/07 03:45:13;;;;;;;5.23;3.90;;;24.20;49.10;;;;;;4943150;28;89352;-68
2022/06/07 03:47:41;;;;;;;5.80;3.83;;;24.20;49.10;;;;;;4943489;28;89481;-68
2022/06/07 03:50:11;;;;;;;7.90;4.17;;;24.20;49.00;;;;;;4943462;28;88348;-69
2022/06/07 03:52:41;;;;;;;6.43;4.53;;;24.20;49.10;;;;;;4941829;28;88525;-68
2022/06/07 03:55:11;;;;;;;5.40;3.87;;;24.20;49.10;;;;;;4943465;28;90735;-68
2022/06/07 03:57:40;;;;;;;5.93;3.97;;;24.20;49.10;;;;;;4928875;28;93019;-69
2022/06/07 04:00:09;;;;;;;8.27;4.20;;;24.20;49.10;;;;;;4942266;28;88569;-68
2022/06/07 04:02:37;;;;;;;7.30;3.73;;;24.20;49.10;;;;;;4942752;28;88510;-68
2022/06/07 04:05:06;;;;;;;6.93;4.40;;;24.20;49.00;;;;;;4942829;28;89398;-69
2022/06/07 04:10:22;;;;;;;6.13;3.87;;;24.20;49.10;;;;;;4954574;28;88884;-70
2022/06/07 04:12:50;;;;;;;6.83;3.73;;;24.20;49.00;;;;;;4947830;28;88449;-69
2022/06/07 04:15:21;;;;;;;7.23;4.20;;;24.20;49.10;;;;;;4941410;28;88458;-73
2022/06/07 04:17:50;;;;;;;5.93;3.97;;;24.20;49.00;;;;;;4943435;28;92617;-73
2022/06/07 04:20:18;;;;;;;6.93;4.33;;;24.20;49.10;;;;;;4943023;28;92211;-69
2022/06/07 04:22:47;;;;;;;6.40;4.17;;;24.20;49.00;;;;;;4942309;28;88377;-73
2022/06/07 04:25:15;;;;;;;6.00;4.13;;;24.20;49.00;;;;;;4942553;28;90035;-73
2022/06/07 04:27:45;;;;;;;5.73;3.60;;;24.20;49.00;;;;;;4942828;28;91596;-68
2022/06/07 04:30:16;;;;;;;5.17;4.30;;;24.20;48.90;;;;;;4942189;28;88692;-67
2022/06/07 04:32:47;;;;;;;7.50;3.60;;;24.20;49.60;;;;;;4929293;28;88424;-69
2022/06/07 04:35:18;;;;;;;5.47;3.87;;;24.00;48.80;;;;;;4942982;28;89633;-68
2022/06/07 04:37:47;;;;;;;7.53;4.07;;;24.20;48.90;;;;;;4943293;28;89458;-69
2022/06/07 04:40:17;;;;;;;6.67;4.00;;;24.20;48.90;;;;;;4941877;28;89296;-68
2022/06/07 04:42:47;;;;;;;4.47;2.90;;;24.20;48.90;;;;;;4943508;28;88600;-68
2022/06/07 04:45:16;;;;;;;4.00;3.00;;;24.20;48.90;;;;;;4941797;28;89755;-68
2022/06/07 04:47:45;;;;;;;4.63;2.83;;;24.20;49.00;;;;;;4941805;28;89010;-68
2022/06/07 04:50:15;;;;;;;3.97;2.83;;;24.20;49.10;;;;;;4942738;28;89414;-66
2022/06/07 04:52:45;;;;;;;4.63;3.20;;;24.20;49.20;;;;;;4943133;28;88428;-68
2022/06/07 04:55:13;;;;;;;3.30;2.77;;;24.20;49.20;;;;;;4940738;28;90516;-68
2022/06/07 04:57:41;;;;;;;4.97;3.27;;;24.20;49.30;;;;;;4942466;28;88471;-67
2022/06/07 05:00:15;;;;;;;3.20;2.53;;;24.20;49.40;;;;;;4941549;28;88594;-67
2022/06/07 05:02:44;;;;;;;4.30;2.50;;;24.20;49.50;;;;;;4942558;28;88803;-67
2022/06/07 05:05:12;;;;;;;3.43;2.70;;;24.30;49.60;;;;;;4941975;28;90625;-67
2022/06/07 05:07:41;;;;;;;3.73;2.53;;;24.20;49.50;;;;;;4942694;28;89040;-67
2022/06/07 05:10:10;;;;;;;3.83;2.73;;;24.30;49.70;;;;;;4942771;28;92169;-67
2022/06/07 05:12:40;;;;;;;3.07;2.10;;;24.30;49.70;;;;;;4942513;28;88787;-67
2022/06/07 05:15:11;;;;;;;3.37;2.00;;;24.30;50.30;;;;;;4942527;28;93520;-67
2022/06/07 05:17:39;;;;;;;4.60;3.00;;;24.30;49.80;;;;;;4941937;28;89188;-67
2022/06/07 05:20:09;;;;;;;4.33;2.50;;;24.30;49.80;;;;;;4942621;28;89762;-67
2022/06/07 05:22:37;;;;;;;4.63;2.27;;;24.30;49.80;;;;;;4942519;28;88479;-73
2022/06/07 05:25:09;;;;;;;3.03;2.57;;;24.30;49.80;;;;;;4942677;28;90146;-67
2022/06/07 05:27:39;;;;;;;3.00;2.40;;;24.30;49.90;;;;;;4941763;28;88988;-67
2022/06/07 05:30:16;;;;;;;3.50;2.77;;;24.30;49.90;;;;;;4942203;28;88922;-67
2022/06/07 05:32:46;;;;;;;3.67;2.50;;;24.30;50.60;;;;;;4941966;28;88477;-68
2022/06/07 05:35:18;;;;;;;3.40;2.37;;;24.30;50.00;;;;;;4930836;28;90770;-67
2022/06/07 05:37:47;;;;;;;3.23;2.40;;;24.30;50.10;;;;;;4944436;28;89481;-69
2022/06/07 05:40:16;;;;;;;4.63;2.30;;;24.30;50.10;;;;;;4952479;28;88791;-67
2022/06/07 05:42:44;;;;;;;2.73;2.17;;;24.30;50.20;;;;;;4949534;28;88644;-67
2022/06/07 05:45:14;;;;;;;2.63;2.40;;;24.30;50.20;;;;;;4942250;28;90068;-67
2022/06/07 05:47:42;;;;;;;4.77;2.20;;;24.30;50.20;;;;;;4941139;28;90218;-67
2022/06/07 05:50:10;;;;;;;2.00;1.80;;;24.30;50.30;;;;;;4941309;28;88266;-67
2022/06/07 05:52:40;;;;;;;3.97;2.10;;;24.30;50.30;;;;;;4942157;28;88518;-67
2022/06/07 05:55:08;;;;;;;3.63;2.63;;;24.40;50.40;;;;;;4941350;28;90744;-67
2022/06/07 05:57:36;;;;;;;3.47;1.83;;;24.40;50.40;;;;;;4942139;28;89029;-67
2022/06/07 06:00:05;;;;;;;2.83;2.07;;;24.30;50.30;;;;;;4941181;28;89164;-67
2022/06/07 06:02:35;;;;;;;3.30;2.53;;;24.30;50.40;;;;;;4941836;28;88474;-68
2022/06/07 06:05:04;;;;;;;4.30;2.30;;;24.30;50.40;;;;;;4940655;28;89486;-67
2022/06/07 06:07:33;;;;;;;4.37;2.10;;;24.40;50.50;;;;;;4942344;28;93377;-67
2022/06/07 06:12:47;;;;;;;2.57;1.80;;;24.40;50.50;;;;;;4942801;28;88831;-67
2022/06/07 06:15:15;;;;;;;2.73;1.70;;;24.40;50.50;;;;;;4926268;28;91117;-67
2022/06/07 06:17:45;;;;;;;2.30;2.10;;;24.40;50.50;;;;;;4940584;28;89082;-67
2022/06/07 06:20:13;;;;;;;2.20;2.00;;;24.40;51.10;;;;;;4941203;28;89227;-67
2022/06/07 06:22:42;;;;;;;3.00;1.70;;;24.40;50.50;;;;;;4941227;28;88695;-67
2022/06/07 06:25:10;;;;;;;3.40;2.00;;;24.40;50.50;;;;;;4941718;28;91568;-66
2022/06/07 06:27:38;;;;;;;3.13;1.67;;;24.40;50.50;;;;;;4941753;28;91863;-66
2022/06/07 06:30:07;;;;;;;2.70;1.47;;;24.40;50.50;;;;;;4941362;28;88805;-67
2022/06/07 06:32:35;;;;;;;9.90;1.83;;;24.40;50.50;;;;;;4942773;28;88509;-66
2022/06/07 06:35:06;;;;;;;3.03;1.80;;;24.40;50.50;;;;;;4942352;28;90984;-67
2022/06/07 06:37:34;;;;;;;1.57;1.30;;;24.40;50.50;;;;;;4952395;28;92791;-68
2022/06/07 06:40:05;;;;;;;3.47;1.50;;;24.40;50.50;;;;;;4959429;28;88793;-66
2022/06/07 06:42:33;;;;;;;2.30;1.50;;;24.40;50.50;;;;;;4955951;28;88652;-67
2022/06/07 06:45:02;;;;;;;7.40;1.53;;;24.40;50.50;;;;;;4941112;28;90163;-66
2022/06/07 06:47:30;;;;;;;1.80;1.37;;;24.50;50.60;;;;;;4924641;28;89562;-66
2022/06/07 06:50:01;;;;;;;1.60;1.43;;;24.50;50.50;;;;;;4931969;28;89590;-68
2022/06/07 06:52:32;;;;;;;1.93;1.50;;;24.50;50.50;;;;;;4941041;28;88643;-67
2022/06/07 06:55:01;;;;;;;3.97;1.50;;;24.50;50.60;;;;;;4940780;28;89728;-67
2022/06/07 06:57:31;;;;;;;1.63;1.43;;;24.50;50.50;;;;;;4940956;28;88836;-66
2022/06/07 06:59:59;;;;;;;1.63;1.30;;;24.50;50.50;;;;;;4935050;28;92248;-66
2022/06/07 07:02:28;;;;;;;1.20;1.10;;;24.50;50.50;;;;;;4920070;28;88754;-67
2022/06/07 07:04:56;;;;;;;1.40;1.30;;;24.50;50.50;;;;;;4941053;28;93377;-67
2022/06/07 07:07:24;;;;;;;1.83;1.40;;;24.50;50.50;;;;;;4940930;28;91134;-67
2022/06/07 07:09:55;;;;;;;1.77;1.30;;;24.50;50.50;;;;;;4951550;28;88558;-68
2022/06/07 07:12:24;;;;;;;1.63;1.40;;;24.50;50.50;;;;;;4941335;28;88612;-70
2022/06/07 07:14:54;;;;;;;2.00;1.50;;;24.50;50.50;;;;;;4940892;28;89032;-67
2022/06/07 07:17:25;;;;;;;1.33;1.20;;;24.20;50.20;;;;;;4940193;28;89068;-67
2022/06/07 07:19:54;;;;;;;1.43;1.10;;;24.50;50.50;;;;;;4941479;28;88900;-67
2022/06/07 07:22:23;;;;;;;1.83;1.20;;;24.60;50.50;;;;;;4940927;28;88660;-67
2022/06/07 07:24:51;;;;;;;1.70;1.37;;;24.60;50.40;;;;;;4940554;28;90747;-66
2022/06/07 07:27:20;;;;;;;0.80;0.73;;;24.60;50.40;;;;;;4940401;28;89202;-66
2022/06/07 07:29:48;;;;;;;1.83;1.33;;;24.60;50.30;;;;;;4941148;28;88475;-66
2022/06/07 07:32:16;;;;;;;2.00;1.13;;;24.70;50.30;;;;;;4941220;28;88646;-67
2022/06/07 07:34:44;;;;;;;1.20;1.10;;;24.70;50.30;;;;;;4940872;28;90641;-66
2022/06/07 07:37:12;;;;;;;1.63;1.00;;;24.70;50.30;;;;;;4927985;28;90884;-67
2022/06/07 07:39:40;;;;;;;1.20;1.10;;;24.70;50.30;;;;;;4924454;28;90158;-69
2022/06/07 07:42:09;;;;;;;1.30;1.03;;;24.70;50.30;;;;;;4940092;28;88431;-68
2022/06/07 07:44:38;;;;;;;1.57;1.30;;;24.70;50.30;;;;;;4940404;28;89883;-68
2022/06/07 07:47:07;;;;;;;2.87;1.27;;;24.60;50.30;;;;;;4940210;28;90419;-68
2022/06/07 07:49:36;;;;;;;1.20;1.10;;;24.70;50.30;;;;;;4939924;28;89855;-69
2022/06/07 07:52:05;;;;;;;1.40;1.30;;;24.70;50.30;;;;;;4939460;28;88809;-68
2022/06/07 07:54:33;;;;;;;6.63;1.23;;;24.60;50.20;;;;;;4939180;28;89612;-68
2022/06/07 07:57:01;;;;;;;1.73;1.23;;;24.60;50.20;;;;;;4939257;28;89049;-68
2022/06/07 07:59:33;;;;;;;1.90;1.30;;;24.60;50.30;;;;;;4941079;28;89898;-68
2022/06/07 08:02:03;;;;;;;1.30;1.20;;;24.60;50.30;;;;;;4940063;28;88664;-68
2022/06/07 08:04:31;;;;;;;13.20;4.20;;;24.70;50.60;;;;;;4941003;28;90333;-69
2022/06/07 08:06:59;;;;;;;22.23;4.40;;;24.80;50.60;;;;;;4940997;28;88862;-69
2022/06/07 08:09:29;;;;;;;9.20;3.60;;;24.80;50.70;;;;;;4940697;28;88475;-69
2022/06/07 08:11:59;;;;;;;14.30;4.90;;;24.90;50.80;;;;;;4940593;28;88815;-69
2022/06/07 08:14:27;;;;;;;10.97;3.90;;;24.90;50.90;;;;;;4941743;28;89271;-69
2022/06/07 08:16:57;;;;;;;19.50;4.87;;;25.00;51.70;;;;;;4941239;28;91475;-67
2022/06/07 08:19:27;;;;;;;19.30;5.63;;;25.00;51.20;;;;;;4942992;28;88268;-68
2022/06/07 08:21:56;;;;;;;18.70;4.67;;;25.10;51.70;;;;;;4943242;28;90382;-68
2022/06/07 08:24:27;;;;;;;14.73;3.23;;;25.10;51.50;;;;;;4924989;28;89348;-68
2022/06/07 08:26:55;;;;;;;11.63;4.10;;;25.10;51.50;;;;;;4925216;28;89708;-68
2022/06/07 08:29:23;;;;;;;13.37;3.83;;;25.20;51.70;;;;;;4925614;28;88329;-69
2022/06/07 08:31:54;;;;;;;40.97;17.60;;;25.20;51.70;;;;;;4932555;28;88657;-69
2022/06/07 08:39:55;;;;;;;24.63;18.10;;;25.40;52.70;;;;;;4942876;28;88350;-67
2022/06/07 08:42:29;;;;;;;33.90;16.87;;;25.50;52.00;;;;;;4942780;28;88606;-69
2022/06/07 08:44:58;;;;;;;30.87;14.67;;;25.40;52.00;;;;;;4942336;28;89731;-69
2022/06/07 08:47:31;;;;;;;23.17;12.27;;;25.50;52.00;;;;;;4943183;28;88528;-67
2022/06/07 08:50:01;;;;;;;21.47;11.60;;;25.50;52.00;;;;;;4935245;28;88399;-71
2022/06/07 08:52:33;;;;;;;10.60;8.43;;;25.40;52.00;;;;;;4942399;28;88635;-72
2022/06/07 08:55:02;;;;;;;11.67;7.53;;;25.40;51.90;;;;;;4943481;28;89447;-71
2022/06/07 08:57:34;;;;;;;14.90;8.13;;;25.40;51.80;;;;;;4943265;28;88974;-70
2022/06/07 09:00:19;;;;;;;6.13;5.50;;;25.30;51.60;;;;;;4941817;28;88591;-72
2022/06/07 09:03:00;;;;;;;7.40;4.93;;;25.20;51.50;;;;;;4942732;28;88496;-72
2022/06/07 09:05:28;;;;;;;5.13;4.37;;;25.20;51.40;;;;;;4942425;28;90617;-72
2022/06/07 09:07:59;;;;;;;3.77;2.93;;;25.20;51.20;;;;;;4943032;28;88966;-72
2022/06/07 09:13:19;;;;;;;4.33;3.37;;;25.10;51.00;;;;;;4943407;28;88530;-72
2022/06/07 09:15:52;;;;;;;10.07;2.90;;;25.10;50.80;;;;;;4942179;28;89739;-72
2022/06/07 09:18:22;;;;;;;4.77;2.60;;;25.10;50.70;;;;;;4943295;28;88508;-72
2022/06/07 09:20:54;;;;;;;5.13;2.77;;;25.00;50.60;;;;;;4942124;28;88299;-72
2022/06/07 09:23:27;;;;;;;4.17;2.43;;;25.00;50.50;;;;;;4941853;28;89025;-72
2022/06/07 09:25:56;;;;;;;2.40;2.20;;;25.00;50.40;;;;;;4943032;28;93370;-72
2022/06/07 09:28:27;;;;;;;3.80;2.30;;;25.00;50.30;;;;;;4926019;28;90070;-72
2022/06/07 09:30:58;;;;;;;4.83;2.80;;;25.00;50.20;;;;;;4941441;28;89088;-72
2022/06/07 09:33:28;;;;;;;4.43;2.40;;;25.00;50.10;;;;;;4942598;28;88603;-71
2022/06/07 09:35:58;;;;;;;4.33;1.70;;;25.00;50.00;;;;;;4942382;28;92977;-72
2022/06/07 09:38:32;;;;;;;3.27;1.83;;;24.90;49.90;;;;;;4942758;28;89992;-71
2022/06/07 09:41:06;;;;;;;5.03;2.13;;;24.90;49.90;;;;;;4925287;28;88417;-71
2022/06/07 09:43:40;;;;;;;5.53;2.13;;;24.90;49.80;;;;;;4942897;28;88555;-72
2022/06/07 09:46:10;;;;;;;4.93;2.33;;;24.90;49.70;;;;;;4942745;28;89606;-72
2022/06/07 09:48:39;;;;;;;2.57;1.70;;;24.90;49.70;;;;;;4942209;28;89001;-72
2022/06/07 09:51:11;;;;;;;2.50;1.70;;;24.90;49.60;;;;;;4942332;28;88703;-71
2022/06/07 09:53:42;;;;;;;1.93;1.60;;;24.90;49.60;;;;;;4947526;28;88631;-72
2022/06/07 09:56:21;;;;;;;5.13;2.23;;;24.90;49.60;;;;;;4951529;28;89598;-72
2022/06/07 09:59:03;;;;;;;2.50;1.87;;;24.90;49.60;;;;;;4942414;28;89962;-72
2022/06/07 10:01:33;;;;;;;2.33;1.47;;;24.80;49.40;;;;;;4942707;28;88342;-71
2022/06/07 10:04:04;;;;;;;2.53;1.13;;;24.80;49.40;;;;;;4942324;28;89578;-71
2022/06/07 10:06:33;;;;;;;1.47;1.30;;;24.80;49.30;;;;;;4942043;28;89623;-72
2022/06/07 10:09:20;;;;;;;2.23;1.30;;;24.80;49.30;;;;;;4942221;28;90114;-72
2022/06/07 10:11:53;;;;;;;2.93;1.70;;;24.80;49.30;;;;;;4942048;28;88688;-71
2022/06/07 10:14:25;;;;;;;1.90;1.70;;;24.80;49.20;;;;;;4941760;28;88711;-71
2022/06/07 10:17:00;;;;;;;1.67;1.47;;;24.80;49.20;;;;;;4942639;28;90099;-72
2022/06/07 10:19:34;;;;;;;3.80;1.40;;;24.80;49.20;;;;;;4941534;28;89330;-71
2022/06/07 10:22:23;;;;;;;2.10;1.40;;;24.80;49.20;;;;;;4941730;28;89923;-72
2022/06/07 10:24:59;;;;;;;4.80;1.93;;;24.80;49.10;;;;;;4939132;28;88110;-72
2022/06/07 10:27:31;;;;;;;1.60;1.40;;;24.80;49.10;;;;;;4941612;28;90553;-73
2022/06/07 10:30:15;;;;;;;1.80;1.70;;;24.80;49.10;;;;;;4941495;28;90995;-72
2022/06/07 10:32:59;;;;;;;1.73;1.60;;;24.80;49.10;;;;;;4941141;28;88367;-72
2022/06/07 10:35:39;;;;;;;2.37;1.43;;;24.80;49.00;;;;;;4942112;28;88378;-71
2022/06/07 10:38:15;;;;;;;2.57;1.60;;;24.80;48.90;;;;;;4941187;28;89585;-72
2022/06/07 10:40:54;;;;;;;3.07;1.60;;;24.80;48.90;;;;;;4941144;28;89315;-71
2022/06/07 10:43:24;;;;;;;1.83;1.23;;;24.80;48.90;;;;;;4940932;28;89379;-72
2022/06/07 10:45:54;;;;;;;2.93;1.63;;;24.80;49.60;;;;;;4941706;28;88378;-73
2022/06/07 10:48:24;;;;;;;3.07;1.77;;;24.80;48.90;;;;;;4941713;28;92476;-72
2022/06/07 10:50:55;;;;;;;3.13;1.60;;;24.80;48.90;;;;;;4941007;28;89479;-72
2022/06/07 10:53:25;;;;;;;2.03;1.73;;;24.80;48.90;;;;;;4940759;28;89785;-72
2022/06/07 10:55:59;;;;;;;1.50;1.40;;;24.80;48.90;;;;;;4948446;28;89286;-72
2022/06/07 10:58:35;;;;;;;2.23;1.50;;;24.80;48.90;;;;;;4956032;28;89615;-72
2022/06/07 11:01:09;;;;;;;1.97;1.40;;;24.80;48.90;;;;;;4960586;28;88996;-72
2022/06/07 11:04:01;;;;;;;1.43;1.33;;;24.80;48.80;;;;;;4960732;28;88430;-72
2022/06/07 11:09:22;;;;;;;2.20;1.50;;;24.80;48.80;;;;;;4948783;28;89495;-72
2022/06/07 11:11:58;;;;;;;1.90;1.40;;;24.80;48.80;;;;;;4941273;28;89282;-72
2022/06/07 11:14:42;;;;;;;1.67;1.43;;;24.80;48.80;;;;;;4941014;28;89687;-73
2022/06/07 11:17:16;;;;;;;1.10;1.00;;;24.80;48.80;;;;;;4941149;28;88748;-72
2022/06/07 11:19:46;;;;;;;2.80;1.40;;;24.80;48.70;;;;;;4940686;28;91112;-72
2022/06/07 11:22:16;;;;;;;1.23;1.13;;;24.80;48.70;;;;;;4940467;28;89236;-72
2022/06/07 11:24:54;;;;;;;2.07;1.20;;;24.90;48.80;;;;;;4940800;28;88860;-72
2022/06/07 11:27:24;;;;;;;2.20;1.70;;;24.90;48.80;;;;;;4948793;28;88491;-72
2022/06/07 11:30:24;;;;;;;2.03;1.53;;;24.90;48.80;;;;;;4940927;28;89633;-72
2022/06/07 11:32:55;;;;;;;3.10;1.63;;;24.90;48.80;;;;;;4938757;28;88343;-72
2022/06/07 11:35:49;;;;;;;2.53;1.60;;;24.90;48.70;;;;;;4940039;28;88378;-72
2022/06/07 11:38:24;;;;;;;2.27;1.47;;;24.80;48.70;;;;;;4940037;28;88686;-72
2022/06/07 11:41:36;;;;;;;1.50;1.20;;;24.80;48.70;;;;;;4941184;28;88310;-72
2022/06/07 11:43:52;;;;;;;3.07;1.30;;;24.80;48.70;;;;;;4940460;28;90340;-72
2022/06/07 11:46:25;;;;;;;3.90;1.77;;;24.80;48.70;;;;;;4940327;28;89227;-72
2022/06/07 11:49:33;;;;;;;1.83;1.50;;;24.80;48.70;;;;;;4940462;28;88747;-72
2022/06/07 11:52:02;;;;;;;1.60;1.50;;;24.80;48.70;;;;;;4940336;28;93520;-72
2022/06/07 11:54:32;;;;;;;2.07;1.87;;;24.80;48.70;;;;;;4942079;28;89049;-72
2022/06/07 11:57:02;;;;;;;2.30;1.80;;;24.90;48.80;;;;;;4943738;28;88452;-72
2022/06/07 11:59:44;;;;;;;2.03;1.57;;;24.90;48.70;;;;;;4944880;28;88441;-72
2022/06/07 12:02:30;;;;;;;2.50;1.60;;;24.90;48.80;;;;;;4926756;28;88467;-72
2022/06/07 12:05:08;;;;;;;2.60;1.37;;;24.90;48.80;;;;;;4943233;28;89141;-72
2022/06/07 12:07:46;;;;;;;2.47;2.00;;;24.90;48.70;;;;;;4951036;28;88788;-72
2022/06/07 12:10:29;;;;;;;2.40;1.50;;;24.90;48.80;;;;;;4943922;28;88508;-72
2022/06/07 12:12:59;;;;;;;1.60;1.47;;;24.90;48.80;;;;;;4943342;28;90048;-72
2022/06/07 12:15:32;;;;;;;3.33;1.40;;;24.90;48.70;;;;;;4943624;28;89120;-72
2022/06/07 12:18:01;;;;;;;2.40;1.57;;;24.90;48.80;;;;;;4943256;28;88385;-72
2022/06/07 12:20:33;;;;;;;1.80;1.70;;;24.90;48.80;;;;;;4943267;28;88432;-72
2022/06/07 12:23:16;;;;;;;1.50;1.40;;;24.90;48.70;;;;;;4943519;28;89920;-72
2022/06/07 12:25:54;;;;;;;1.73;1.60;;;25.00;49.50;;;;;;4942288;28;88891;-72
2022/06/07 12:28:25;;;;;;;1.93;1.50;;;25.00;48.80;;;;;;4943223;28;90278;-72
2022/06/07 12:30:55;;;;;;;3.83;1.47;;;25.00;48.80;;;;;;4943716;28;88946;-72
2022/06/07 12:33:28;;;;;;;1.73;1.63;;;25.00;48.80;;;;;;4939590;28;89459;-72
2022/06/07 12:36:01;;;;;;;3.57;1.63;;;25.00;48.80;;;;;;4941883;28;90111;-72
2022/06/07 12:38:31;;;;;;;1.33;1.23;;;25.00;48.80;;;;;;4943689;28;90418;-71
2022/06/07 12:41:03;;;;;;;2.60;1.70;;;25.00;48.70;;;;;;4943336;28;88445;-72
2022/06/07 12:43:38;;;;;;;2.53;1.50;;;25.00;48.70;;;;;;4942023;28;88469;-72
2022/06/07 12:46:18;;;;;;;3.83;1.50;;;25.10;48.80;;;;;;4942350;28;91599;-72
2022/06/07 12:48:46;;;;;;;3.07;1.33;;;25.10;48.80;;;;;;4943130;28;88444;-72
2022/06/07 12:51:28;;;;;;;1.63;1.30;;;25.10;48.70;;;;;;4943559;28;88659;-73
2022/06/07 12:54:00;;;;;;;2.10;1.93;;;25.10;48.70;;;;;;4942970;28;89529;-71
2022/06/07 12:56:29;;;;;;;1.53;1.40;;;25.10;48.70;;;;;;4942549;28;89246;-72
2022/06/07 12:58:58;;;;;;;2.10;1.50;;;25.10;48.70;;;;;;4942896;28;91228;-72
2022/06/07 13:01:34;;;;;;;2.07;1.60;;;25.10;48.80;;;;;;4943760;28;88661;-71
2022/06/07 13:04:05;;;;;;;3.60;1.87;;;25.10;48.80;;;;;;4942770;28;89507;-72
2022/06/07 13:06:33;;;;;;;2.60;1.60;;;25.10;48.80;;;;;;4943524;28;92683;-72
2022/06/07 13:09:03;;;;;;;2.10;1.27;;;25.20;48.80;;;;;;4942316;28;88235;-71
2022/06/07 13:11:34;;;;;;;1.30;1.20;;;25.20;48.70;;;;;;4943277;28;88642;-72
2022/06/07 13:14:02;;;;;;;3.07;1.80;;;25.20;48.70;;;;;;4943029;28;90737;-72
2022/06/07 13:16:42;;;;;;;1.40;1.30;;;25.20;48.70;;;;;;4925409;28;88722;-72
2022/06/07 13:19:26;;;;;;;1.83;1.53;;;25.20;48.70;;;;;;4942103;28;88550;-72
2022/06/07 13:22:00;;;;;;;1.50;1.33;;;25.20;48.70;;;;;;4942933;28;88630;-72
2022/06/07 13:24:30;;;;;;;1.40;1.30;;;25.20;48.60;;;;;;4942384;28;88592;-71
2022/06/07 13:27:00;;;;;;;3.83;1.63;;;25.20;48.60;;;;;;4942280;28;90216;-72
2022/06/07 13:29:28;;;;;;;2.50;1.40;;;25.20;48.60;;;;;;4942511;28;88488;-69
2022/06/07 13:32:02;;;;;;;1.70;1.60;;;25.30;48.70;;;;;;4940163;28;88487;-71